Time;durP1;ratioP1;P1;durP2;ratioP2;P2;SDS_P1;SDS_P2;PMS_P1;PMS_P2;Temp;Humidity;BMP_temperature;BMP_pressure;BME280_temperature;BME280_humidity;BME280_pressure;Samples;Min_cycle;Max_cycle;Signal;HPM_P1;HPM_P2
2023/04/20 00:01:36;;;;;;;7.47;6.30;;;;;;;;;;6258098;23;20147;-84
2023/04/20 00:04:40;;;;;;;10.93;6.40;;;;;;;;;;6222209;23;20155;-85
2023/04/20 00:07:44;;;;;;;10.50;6.33;;;;;;;;;;6244761;23;20151;-84
2023/04/20 00:10:49;;;;;;;11.03;6.80;;;;;;;;;;6208503;23;20152;-85
2023/04/20 00:13:53;;;;;;;12.10;7.23;;;;;;;;;;6207892;23;20147;-85
2023/04/20 00:16:57;;;;;;;8.47;6.67;;;;;;;;;;6215294;23;20195;-85
2023/04/20 00:20:02;;;;;;;10.07;7.17;;;;;;;;;;6214809;23;20187;-85
2023/04/20 00:23:06;;;;;;;11.20;6.50;;;;;;;;;;6207308;23;20155;-85
2023/04/20 00:26:10;;;;;;;10.13;6.83;;;;;;;;;;6224497;23;20152;-85
2023/04/20 00:29:15;;;;;;;7.83;6.40;;;;;;;;;;6202267;23;20667;-84
2023/04/20 00:32:19;;;;;;;9.90;6.60;;;;;;;;;;6223776;23;20155;-84
2023/04/20 00:35:25;;;;;;;7.40;5.97;;;;;;;;;;6223964;23;20179;-85
2023/04/20 00:38:29;;;;;;;12.03;6.03;;;;;;;;;;6205330;23;20520;-84
2023/04/20 00:41:36;;;;;;;8.03;6.50;;;;;;;;;;6206221;23;20152;-84
2023/04/20 00:44:40;;;;;;;7.67;5.80;;;;;;;;;;6223060;23;20595;-84
2023/04/20 00:47:45;;;;;;;9.53;6.83;;;;;;;;;;6224525;23;20151;-84
2023/04/20 00:50:50;;;;;;;7.80;6.33;;;;;;;;;;6241695;23;20156;-85
2023/04/20 00:53:54;;;;;;;8.37;6.10;;;;;;;;;;6213698;23;20171;-85
2023/04/20 00:56:58;;;;;;;7.83;6.13;;;;;;;;;;6212862;23;20199;-85
2023/04/20 01:00:05;;;;;;;9.03;6.60;;;;;;;;;;6196107;23;20187;-85
2023/04/20 01:03:09;;;;;;;7.83;6.23;;;;;;;;;;6195916;23;20477;-84
2023/04/20 01:06:14;;;;;;;7.97;6.73;;;;;;;;;;6206084;23;20152;-84
2023/04/20 01:09:21;;;;;;;8.73;6.47;;;;;;;;;;6235619;22;20203;31
2023/04/20 01:12:25;;;;;;;7.97;6.17;;;;;;;;;;6150622;23;20188;-88
2023/04/20 01:15:30;;;;;;;7.83;6.33;;;;;;;;;;6135156;23;20173;-87
2023/04/20 01:18:47;;;;;;;8.73;7.03;;;;;;;;;;6163222;23;20161;-87
2023/04/20 01:21:51;;;;;;;7.87;6.60;;;;;;;;;;6122928;23;20502;-89
2023/04/20 01:24:57;;;;;;;9.70;7.47;;;;;;;;;;6133221;23;20154;-89
2023/04/20 01:28:03;;;;;;;10.23;6.20;;;;;;;;;;6149872;23;20150;-89
2023/04/20 01:31:09;;;;;;;8.60;6.67;;;;;;;;;;6109284;23;20189;-88
2023/04/20 01:34:16;;;;;;;8.37;7.03;;;;;;;;;;6133188;23;20158;-89
2023/04/20 01:37:23;;;;;;;7.80;6.60;;;;;;;;;;6132894;23;20181;-88
2023/04/20 01:40:27;;;;;;;6.77;5.77;;;;;;;;;;6111437;23;20662;-88
2023/04/20 01:43:33;;;;;;;8.63;6.67;;;;;;;;;;6166724;23;20157;-89
2023/04/20 01:46:38;;;;;;;9.30;7.13;;;;;;;;;;6132694;23;20154;-89
2023/04/20 01:49:44;;;;;;;8.67;6.97;;;;;;;;;;6122907;23;20193;-90
2023/04/20 01:52:48;;;;;;;9.97;7.50;;;;;;;;;;6149555;23;20158;-86
2023/04/20 01:55:54;;;;;;;10.30;7.77;;;;;;;;;;6132415;23;20177;-88
2023/04/20 01:59:00;;;;;;;9.00;7.40;;;;;;;;;;6116517;23;20598;-88
2023/04/20 02:02:04;;;;;;;9.90;7.30;;;;;;;;;;6149480;23;20590;-89
2023/04/20 02:05:11;;;;;;;9.70;7.87;;;;;;;;;;6166199;23;20161;-89
2023/04/20 02:08:18;;;;;;;9.17;7.17;;;;;;;;;;6132772;23;20154;-89
2023/04/20 02:11:22;;;;;;;12.10;7.40;;;;;;;;;;6123877;23;20197;-89
2023/04/20 02:14:26;;;;;;;8.90;7.33;;;;;;;;;;6166590;23;20158;-90
2023/04/20 02:17:31;;;;;;;11.13;8.30;;;;;;;;;;6116201;23;20492;-89
2023/04/20 02:20:36;;;;;;;10.47;8.30;;;;;;;;;;6143958;23;20193;-89
2023/04/20 02:23:40;;;;;;;13.73;8.67;;;;;;;;;;6122864;23;20170;-89
2023/04/20 02:26:44;;;;;;;14.33;9.13;;;;;;;;;;6122428;23;20166;-89
2023/04/20 02:29:48;;;;;;;11.97;9.43;;;;;;;;;;6147387;23;20189;-89
2023/04/20 02:32:52;;;;;;;11.93;8.80;;;;;;;;;;6122432;23;20173;-89
2023/04/20 02:35:56;;;;;;;14.17;8.90;;;;;;;;;;6139408;23;20173;-89
2023/04/20 02:39:02;;;;;;;9.93;8.40;;;;;;;;;;6132268;23;20511;-87
2023/04/20 02:42:07;;;;;;;13.30;9.33;;;;;;;;;;6116299;23;20487;-86
2023/04/20 02:45:12;;;;;;;11.43;8.77;;;;;;;;;;6149773;23;20153;-87
2023/04/20 02:48:19;;;;;;;10.67;8.60;;;;;;;;;;6149261;23;20153;-87
2023/04/20 02:51:23;;;;;;;12.63;9.10;;;;;;;;;;6123865;23;20189;-86
2023/04/20 02:54:28;;;;;;;12.20;8.57;;;;;;;;;;6148804;23;20154;-86
2023/04/20 02:57:33;;;;;;;17.63;10.37;;;;;;;;;;6132191;23;20182;-87
2023/04/20 03:00:38;;;;;;;12.80;9.03;;;;;;;;;;6110200;23;20197;-86
2023/04/20 03:03:45;;;;;;;12.07;8.83;;;;;;;;;;6132202;23;20595;-87
2023/04/20 03:06:50;;;;;;;14.37;9.63;;;;;;;;;;6132022;23;20150;-86
2023/04/20 03:09:59;;;;;;;12.80;9.53;;;;;;;;;;6145879;23;20197;-87
2023/04/20 03:13:14;;;;;;;13.33;9.97;;;;;;;;;;6134383;23;20149;-87
2023/04/20 03:16:29;;;;;;;11.00;9.03;;;;;;;;;;6148455;23;20623;-87
2023/04/20 03:19:35;;;;;;;11.33;8.73;;;;;;;;;;6147664;23;20162;-87
2023/04/20 03:22:40;;;;;;;11.90;8.80;;;;;;;;;;6148868;23;20618;-86
2023/04/20 03:25:46;;;;;;;12.03;8.80;;;;;;;;;;6132271;23;20590;-86
2023/04/20 03:29:01;;;;;;;14.13;8.93;;;;;;;;;;6117393;23;20158;-87
2023/04/20 03:32:06;;;;;;;12.33;9.00;;;;;;;;;;6131744;23;20153;-86
2023/04/20 03:35:10;;;;;;;10.87;9.27;;;;;;;;;;6148776;23;20158;-86
2023/04/20 03:38:14;;;;;;;14.13;9.87;;;;;;;;;;6148297;23;20634;-87
2023/04/20 03:41:18;;;;;;;13.33;9.47;;;;;;;;;;6140461;23;20192;-89
2023/04/20 03:44:22;;;;;;;11.93;9.40;;;;;;;;;;6122162;23;20173;-89
2023/04/20 03:47:26;;;;;;;10.83;8.87;;;;;;;;;;6132127;23;20153;-89
2023/04/20 03:50:32;;;;;;;13.50;10.40;;;;;;;;;;6143899;23;20193;-89
2023/04/20 03:53:37;;;;;;;13.30;9.90;;;;;;;;;;6131905;23;20154;-89
2023/04/20 03:56:41;;;;;;;15.40;10.63;;;;;;;;;;6131643;23;20186;-89
2023/04/20 03:59:44;;;;;;;14.20;10.70;;;;;;;;;;6146537;23;20197;-89
2023/04/20 04:02:53;;;;;;;17.77;12.30;;;;;;;;;;6121573;23;20488;-89
2023/04/20 04:06:03;;;;;;;14.43;11.23;;;;;;;;;;6121789;23;20173;-89
2023/04/20 04:09:08;;;;;;;18.17;11.23;;;;;;;;;;6130715;23;20158;-89
2023/04/20 04:12:13;;;;;;;16.90;11.07;;;;;;;;;;6131691;23;20154;-88
2023/04/20 04:15:19;;;;;;;15.77;11.80;;;;;;;;;;6122038;23;20178;-88
2023/04/20 04:18:44;;;;;;;15.87;12.00;;;;;;;;;;6148178;23;20154;-88
2023/04/20 04:21:48;;;;;;;15.80;11.73;;;;;;;;;;6121302;23;20173;-87
2023/04/20 04:24:53;;;;;;;18.93;13.03;;;;;;;;;;6131777;23;20157;-87
2023/04/20 04:27:57;;;;;;;24.03;16.83;;;;;;;;;;6138472;23;20169;-87
2023/04/20 04:31:04;;;;;;;34.17;23.67;;;;;;;;;;6121706;23;20193;-88
2023/04/20 04:34:11;;;;;;;24.43;16.47;;;;;;;;;;6133511;23;20154;-87
2023/04/20 04:37:21;;;;;;;22.20;14.27;;;;;;;;;;6133179;23;20178;-85
2023/04/20 04:40:32;;;;;;;21.13;14.40;;;;;;;;;;6124637;23;20198;-87
2023/04/20 04:43:39;;;;;;;18.53;14.67;;;;;;;;;;6151922;23;20154;-87
2023/04/20 04:47:08;;;;;;;21.80;14.80;;;;;;;;;;6153321;23;20154;-87
2023/04/20 04:50:12;;;;;;;20.37;14.60;;;;;;;;;;6149483;23;20193;-88
2023/04/20 04:53:16;;;;;;;22.93;15.47;;;;;;;;;;6137269;23;20150;-88
2023/04/20 04:56:22;;;;;;;22.10;15.30;;;;;;;;;;6170884;23;20153;-87
2023/04/20 04:59:47;;;;;;;21.10;15.33;;;;;;;;;;6139516;23;20504;-87
2023/04/20 05:02:52;;;;;;;25.33;16.40;;;;;;;;;;6149775;23;20157;-87
2023/04/20 05:05:56;;;;;;;24.70;17.27;;;;;;;;;;6133941;23;20158;-88
2023/04/20 05:09:00;;;;;;;25.37;16.10;;;;;;;;;;6150989;23;20149;-89
2023/04/20 05:12:05;;;;;;;23.30;16.57;;;;;;;;;;6116788;23;20150;-89
2023/04/20 05:15:09;;;;;;;24.00;16.53;;;;;;;;;;6133102;23;20154;-89
2023/04/20 05:18:13;;;;;;;26.10;17.73;;;;;;;;;;6133598;23;20181;-88
2023/04/20 05:21:18;;;;;;;26.93;18.10;;;;;;;;;;6108924;23;20654;-89
2023/04/20 05:24:22;;;;;;;27.03;17.83;;;;;;;;;;6116464;23;20157;-88
2023/04/20 05:27:26;;;;;;;28.13;18.03;;;;;;;;;;6133570;23;20201;-88
2023/04/20 05:30:30;;;;;;;25.73;17.60;;;;;;;;;;6145245;23;20499;-88
2023/04/20 05:33:35;;;;;;;24.90;18.13;;;;;;;;;;6107065;23;20170;-88
2023/04/20 05:36:40;;;;;;;24.93;17.90;;;;;;;;;;6123492;23;20173;-88
2023/04/20 05:39:59;;;;;;;24.67;15.60;;;;;;;;;;5071263;28;20838;-73
2023/04/20 05:43:03;;;;;;;23.27;16.03;;;;;;;;;;5050650;28;20195;-73
2023/04/20 05:46:07;;;;;;;23.07;15.53;;;;;;;;;;5049489;28;20181;-73
2023/04/20 05:49:11;;;;;;;21.90;15.67;;;;;;;;;;5049713;28;20536;-73
2023/04/20 05:52:16;;;;;;;19.60;14.17;;;;;;;;;;5049260;28;20211;-73
2023/04/20 05:55:20;;;;;;;20.47;14.37;;;;;;;;;;5049448;28;20635;-73
2023/04/20 05:58:24;;;;;;;17.43;12.73;;;;;;;;;;5049299;28;20212;-73
2023/04/20 06:01:28;;;;;;;15.80;11.23;;;;;;;;;;5050008;28;20215;-73
2023/04/20 06:04:32;;;;;;;15.27;11.37;;;;;;;;;;5060314;28;20662;-73
2023/04/20 06:07:37;;;;;;;13.03;9.73;;;;;;;;;;5048528;28;20191;-73
2023/04/20 06:10:41;;;;;;;12.97;9.13;;;;;;;;;;5049874;28;20557;-73
2023/04/20 06:13:45;;;;;;;15.57;10.47;;;;;;;;;;5050138;28;20180;-73
2023/04/20 06:16:50;;;;;;;15.40;9.73;;;;;;;;;;5049985;28;20177;-73
2023/04/20 06:19:54;;;;;;;14.60;8.93;;;;;;;;;;5049604;28;20220;-73
2023/04/20 06:22:59;;;;;;;12.63;9.27;;;;;;;;;;5049689;28;20180;-73
2023/04/20 06:26:07;;;;;;;11.93;9.23;;;;;;;;;;5048832;28;20185;-73
2023/04/20 06:29:11;;;;;;;13.63;9.63;;;;;;;;;;5049138;28;20173;-73
2023/04/20 06:32:15;;;;;;;15.63;9.97;;;;;;;;;;5049523;28;20222;-73
2023/04/20 06:35:20;;;;;;;11.73;9.27;;;;;;;;;;5049796;28;20538;-73
2023/04/20 06:38:24;;;;;;;12.03;8.83;;;;;;;;;;5048398;28;20220;-73
2023/04/20 06:41:28;;;;;;;11.87;9.23;;;;;;;;;;5048732;28;20686;-73
2023/04/20 06:44:32;;;;;;;13.57;9.93;;;;;;;;;;5049546;28;20192;-73
2023/04/20 06:47:37;;;;;;;12.73;9.50;;;;;;;;;;5049404;28;20566;-73
2023/04/20 06:50:41;;;;;;;12.57;9.37;;;;;;;;;;5039555;28;20212;-73
2023/04/20 06:53:45;;;;;;;13.07;9.60;;;;;;;;;;5036007;28;20185;-73
2023/04/20 06:56:49;;;;;;;13.00;9.57;;;;;;;;;;5036173;28;20535;-73
2023/04/20 06:59:53;;;;;;;13.67;9.47;;;;;;;;;;5035223;28;20200;-73
2023/04/20 07:02:57;;;;;;;12.80;10.10;;;;;;;;;;5035763;28;20177;-71
2023/04/20 07:06:02;;;;;;;11.10;8.87;;;;;;;;;;5035907;28;20196;-71
2023/04/20 07:09:07;;;;;;;10.30;8.40;;;;;;;;;;5035570;28;20197;-71
2023/04/20 07:12:14;;;;;;;12.63;9.00;;;;;;;;;;5039901;22;20229;-70
2023/04/20 07:15:18;;;;;;;11.57;9.37;;;;;;;;;;5015979;28;20174;-70
2023/04/20 07:18:22;;;;;;;10.70;8.43;;;;;;;;;;5015894;28;20209;-70
2023/04/20 07:21:26;;;;;;;9.43;8.20;;;;;;;;;;5015836;28;20221;-70
2023/04/20 07:24:31;;;;;;;11.27;8.77;;;;;;;;;;5014987;28;20182;-69
2023/04/20 07:27:37;;;;;;;10.60;9.20;;;;;;;;;;5015794;28;20220;-70
2023/04/20 07:30:41;;;;;;;12.73;9.83;;;;;;;;;;5014734;28;20553;-70
2023/04/20 07:33:45;;;;;;;13.60;9.40;;;;;;;;;;5014841;28;20182;-70
2023/04/20 07:36:49;;;;;;;11.60;10.00;;;;;;;;;;5015587;28;20624;-70
2023/04/20 07:39:54;;;;;;;18.33;9.63;;;;;;;;;;5015503;28;20209;-70
2023/04/20 07:42:58;;;;;;;13.37;9.83;;;;;;;;;;5014676;28;20177;-70
2023/04/20 07:46:02;;;;;;;13.23;9.53;;;;;;;;;;5015360;28;20182;-70
2023/04/20 07:49:06;;;;;;;13.77;9.50;;;;;;;;;;5015092;28;20525;-70
2023/04/20 07:52:11;;;;;;;12.17;8.37;;;;;;;;;;5015085;28;20225;-70
2023/04/20 07:55:16;;;;;;;9.47;8.00;;;;;;;;;;5015243;28;20548;-70
2023/04/20 07:58:20;;;;;;;11.00;9.00;;;;;;;;;;5015106;28;20182;-70
2023/04/20 08:01:25;;;;;;;13.90;9.07;;;;;;;;;;5014323;28;20221;-70
2023/04/20 08:04:29;;;;;;;13.00;8.80;;;;;;;;;;5003060;28;20181;-69
2023/04/20 08:07:33;;;;;;;11.83;8.87;;;;;;;;;;5014950;28;20178;-69
2023/04/20 08:10:37;;;;;;;12.23;8.23;;;;;;;;;;5014851;28;20217;-70
2023/04/20 08:13:41;;;;;;;10.97;7.73;;;;;;;;;;5014616;28;20551;-70
2023/04/20 08:16:45;;;;;;;9.63;7.70;;;;;;;;;;5013985;28;20178;-70
2023/04/20 08:19:49;;;;;;;10.73;7.77;;;;;;;;;;5014438;28;20217;-70
2023/04/20 08:22:53;;;;;;;12.07;7.80;;;;;;;;;;5014823;28;20189;-70
2023/04/20 08:25:57;;;;;;;9.20;8.07;;;;;;;;;;5014656;28;20177;-70
2023/04/20 08:29:03;;;;;;;24.53;15.77;;;;;;;;;;5014271;28;20197;-70
2023/04/20 08:32:11;;;;;;;31.30;19.47;;;;;;;;;;5013363;28;20576;-70
2023/04/20 08:35:15;;;;;;;12.43;8.63;;;;;;;;;;5014249;28;20185;-70
2023/04/20 08:38:20;;;;;;;10.83;8.23;;;;;;;;;;5014197;28;20181;-70
2023/04/20 08:41:25;;;;;;;12.47;8.23;;;;;;;;;;5014069;28;20558;-69
2023/04/20 08:44:29;;;;;;;10.93;7.63;;;;;;;;;;5014360;28;20515;-70
2023/04/20 08:47:34;;;;;;;8.17;6.97;;;;;;;;;;5014203;28;20181;-69
2023/04/20 08:50:40;;;;;;;9.27;6.90;;;;;;;;;;5014252;28;20221;-70
2023/04/20 08:53:44;;;;;;;9.53;7.37;;;;;;;;;;5013812;28;20201;-69
2023/04/20 08:56:48;;;;;;;11.67;7.67;;;;;;;;;;5014064;28;20189;-69
2023/04/20 08:59:52;;;;;;;12.63;8.67;;;;;;;;;;5013786;28;20684;-69
2023/04/20 09:02:58;;;;;;;11.43;7.67;;;;;;;;;;5012970;28;20193;-70
2023/04/20 09:06:14;;;;;;;13.47;8.90;;;;;;;;;;5014063;28;20178;-69
2023/04/20 09:09:19;;;;;;;14.23;10.17;;;;;;;;;;5012957;28;20182;-70
2023/04/20 09:12:24;;;;;;;12.40;9.17;;;;;;;;;;5012785;28;20229;-70
2023/04/20 09:15:31;;;;;;;13.57;10.57;;;;;;;;;;5012799;28;20181;-70
2023/04/20 09:18:37;;;;;;;10.90;9.00;;;;;;;;;;5013783;28;20182;-70
2023/04/20 09:21:49;;;;;;;10.07;7.57;;;;;;;;;;5013478;28;20217;-70
2023/04/20 09:24:53;;;;;;;9.87;7.40;;;;;;;;;;5013502;28;20186;-70
2023/04/20 09:27:59;;;;;;;8.47;7.00;;;;;;;;;;5012943;28;20177;-70
2023/04/20 09:31:03;;;;;;;9.00;6.50;;;;;;;;;;5013569;28;20221;-70
2023/04/20 09:34:07;;;;;;;8.83;7.03;;;;;;;;;;5013371;28;20197;-70
2023/04/20 09:37:14;;;;;;;10.00;7.50;;;;;;;;;;5013593;28;20201;-70
2023/04/20 09:40:20;;;;;;;9.03;6.80;;;;;;;;;;5013457;28;20201;-69
2023/04/20 09:43:27;;;;;;;7.53;6.47;;;;;;;;;;5001488;28;20178;-70
2023/04/20 09:46:34;;;;;;;9.63;7.30;;;;;;;;;;5013437;28;20182;-70
2023/04/20 09:49:38;;;;;;;12.53;7.80;;;;;;;;;;5013254;28;20177;-70
2023/04/20 09:52:44;;;;;;;11.50;7.93;;;;;;;;;;5013400;28;20181;-70
2023/04/20 09:55:50;;;;;;;11.70;7.47;;;;;;;;;;5012896;28;20186;-70
2023/04/20 09:58:55;;;;;;;9.67;7.17;;;;;;;;;;5012941;28;20197;-70
2023/04/20 10:02:00;;;;;;;8.67;7.13;;;;;;;;;;5011829;28;20217;-70
2023/04/20 10:05:04;;;;;;;9.37;7.30;;;;;;;;;;5001530;28;20181;-69
2023/04/20 10:08:08;;;;;;;12.50;7.37;;;;;;;;;;5013127;28;20633;-70
2023/04/20 10:11:23;;;;;;;9.47;7.10;;;;;;;;;;5012115;28;20217;-70
2023/04/20 10:14:28;;;;;;;9.47;7.20;;;;;;;;;;5012579;28;20185;-70
2023/04/20 10:17:32;;;;;;;8.90;6.97;;;;;;;;;;5013018;28;20181;-69
2023/04/20 10:20:37;;;;;;;8.90;6.60;;;;;;;;;;5012308;28;20700;-70
2023/04/20 10:23:49;;;;;;;10.10;6.70;;;;;;;;;;5012190;28;20186;-69
2023/04/20 10:26:53;;;;;;;9.17;7.43;;;;;;;;;;5016613;28;20186;-69
2023/04/20 10:30:10;;;;;;;8.30;6.43;;;;;;;;;;5016166;28;20181;-69
2023/04/20 10:33:16;;;;;;;6.73;5.77;;;;;;;;;;5016277;28;20182;-70
2023/04/20 10:36:26;;;;;;;8.87;6.13;;;;;;;;;;5016458;28;20193;-70
2023/04/20 10:39:31;;;;;;;6.70;5.57;;;;;;;;;;5016291;28;20206;-69
2023/04/20 10:42:45;;;;;;;7.60;6.07;;;;;;;;;;5016312;28;20205;-70
2023/04/20 10:45:49;;;;;;;6.70;5.77;;;;;;;;;;5015772;28;20536;-70
2023/04/20 10:48:55;;;;;;;8.70;7.03;;;;;;;;;;5016145;28;20181;-70
2023/04/20 10:51:59;;;;;;;8.37;6.20;;;;;;;;;;5015498;28;20213;-70
2023/04/20 10:55:05;;;;;;;7.30;5.50;;;;;;;;;;5015456;28;20185;-70
2023/04/20 10:58:20;;;;;;;9.20;6.10;;;;;;;;;;5015957;28;20551;-70
2023/04/20 11:01:24;;;;;;;7.23;6.10;;;;;;;;;;5014939;28;20229;-70
2023/04/20 11:04:32;;;;;;;6.53;5.17;;;;;;;;;;5015816;28;20189;-70
2023/04/20 11:07:46;;;;;;;8.33;6.07;;;;;;;;;;5015978;28;20629;-70
2023/04/20 11:10:50;;;;;;;7.37;5.90;;;;;;;;;;5015075;28;20213;-70
2023/04/20 11:14:08;;;;;;;9.00;6.57;;;;;;;;;;5015926;28;20181;-70
2023/04/20 11:17:12;;;;;;;9.47;6.97;;;;;;;;;;5015556;28;20660;-70
2023/04/20 11:20:17;;;;;;;7.03;5.67;;;;;;;;;;5015633;28;20214;-70
2023/04/20 11:23:23;;;;;;;6.13;5.50;;;;;;;;;;5015020;28;20628;-69
2023/04/20 11:26:35;;;;;;;6.97;5.83;;;;;;;;;;5015086;28;20198;-70
2023/04/20 11:29:39;;;;;;;8.43;6.73;;;;;;;;;;5015856;28;20173;-70
2023/04/20 11:32:52;;;;;;;6.73;5.53;;;;;;;;;;5015588;28;20181;-70
2023/04/20 11:35:58;;;;;;;7.50;6.10;;;;;;;;;;5014632;28;20185;-70
2023/04/20 11:39:16;;;;;;;7.63;5.07;;;;;;;;;;5015213;28;20185;-70
2023/04/20 11:42:20;;;;;;;7.40;5.77;;;;;;;;;;5014505;28;20214;-70
2023/04/20 11:45:26;;;;;;;7.43;5.33;;;;;;;;;;5015273;28;20181;-70
2023/04/20 11:48:31;;;;;;;8.30;5.93;;;;;;;;;;5003246;28;20182;-70
2023/04/20 11:51:35;;;;;;;6.83;4.97;;;;;;;;;;5014381;28;20217;-70
2023/04/20 11:54:40;;;;;;;7.40;5.23;;;;;;;;;;5015680;28;20201;-70
2023/04/20 11:57:44;;;;;;;5.93;4.70;;;;;;;;;;5014794;28;20202;-70
2023/04/20 12:00:48;;;;;;;6.47;4.50;;;;;;;;;;5014058;28;20727;-70
2023/04/20 12:03:54;;;;;;;4.93;4.30;;;;;;;;;;5002943;28;20177;-69
2023/04/20 12:06:59;;;;;;;5.40;4.80;;;;;;;;;;5014919;28;20189;-70
2023/04/20 12:10:03;;;;;;;5.50;3.87;;;;;;;;;;5014798;28;20177;-70
2023/04/20 12:13:07;;;;;;;6.70;5.03;;;;;;;;;;5002340;28;20201;-70
2023/04/20 12:16:12;;;;;;;5.90;4.93;;;;;;;;;;5014634;28;20178;-70
2023/04/20 12:19:16;;;;;;;6.27;4.60;;;;;;;;;;5014586;28;20185;-70
2023/04/20 12:22:20;;;;;;;5.50;4.67;;;;;;;;;;5014478;28;20221;-70
2023/04/20 12:25:24;;;;;;;5.17;4.60;;;;;;;;;;5014809;28;20182;-70
2023/04/20 12:28:29;;;;;;;5.97;4.73;;;;;;;;;;5014785;28;20185;-70
2023/04/20 12:31:34;;;;;;;6.43;5.00;;;;;;;;;;5014451;28;20209;-69
2023/04/20 12:34:38;;;;;;;5.73;5.10;;;;;;;;;;5014146;28;20632;-69
2023/04/20 12:37:42;;;;;;;6.40;5.23;;;;;;;;;;5014274;28;20185;-69
2023/04/20 12:40:46;;;;;;;5.57;4.87;;;;;;;;;;5014190;28;20229;-70
2023/04/20 12:43:50;;;;;;;6.43;5.40;;;;;;;;;;5014256;28;20482;-70
2023/04/20 12:46:55;;;;;;;6.23;5.17;;;;;;;;;;5013272;28;20185;-70
2023/04/20 12:49:59;;;;;;;5.20;4.70;;;;;;;;;;5013411;28;20181;-70
2023/04/20 12:53:03;;;;;;;6.03;4.90;;;;;;;;;;5013434;28;20182;-70
2023/04/20 12:56:07;;;;;;;6.07;5.17;;;;;;;;;;5013625;28;20177;-70
2023/04/20 12:59:11;;;;;;;6.27;5.37;;;;;;;;;;5014154;28;20182;-70
2023/04/20 13:02:17;;;;;;;7.90;5.70;;;;;;;;;;5013059;28;20213;-70
2023/04/20 13:05:21;;;;;;;11.70;6.03;;;;;;;;;;5012958;28;20197;-70
2023/04/20 13:08:25;;;;;;;6.73;5.57;;;;;;;;;;5013854;28;20181;-70
2023/04/20 13:11:30;;;;;;;7.00;5.90;;;;;;;;;;5030129;22;20225;-72
2023/04/20 13:14:34;;;;;;;7.00;6.30;;;;;;;;;;4980879;28;20583;-74
2023/04/20 13:17:39;;;;;;;6.67;5.90;;;;;;;;;;4994139;28;20202;-74
2023/04/20 13:20:43;;;;;;;8.13;6.27;;;;;;;;;;4994242;28;20541;-74
2023/04/20 13:23:47;;;;;;;8.17;6.53;;;;;;;;;;4994031;28;20649;-74
2023/04/20 13:26:56;;;;;;;6.40;5.67;;;;;;;;;;4993907;28;20174;-74
2023/04/20 13:30:00;;;;;;;7.27;6.27;;;;;;;;;;4993305;28;20186;-74
2023/04/20 13:33:05;;;;;;;7.13;6.43;;;;;;;;;;4993188;28;20178;-74
2023/04/20 13:36:09;;;;;;;8.17;6.83;;;;;;;;;;4994256;28;20202;-74
2023/04/20 13:39:14;;;;;;;8.57;7.13;;;;;;;;;;4992995;28;20190;-74
2023/04/20 13:42:18;;;;;;;7.27;6.50;;;;;;;;;;4992865;28;20705;-74
2023/04/20 13:45:23;;;;;;;8.10;7.27;;;;;;;;;;4992820;28;20201;-74
2023/04/20 13:48:27;;;;;;;7.60;6.73;;;;;;;;;;4992884;28;20198;-73
2023/04/20 13:51:31;;;;;;;7.23;6.50;;;;;;;;;;4993827;28;20210;-74
2023/04/20 13:54:35;;;;;;;8.93;6.67;;;;;;;;;;4992833;28;20198;-74
2023/04/20 13:57:40;;;;;;;9.23;7.80;;;;;;;;;;4993818;28;20194;-73
2023/04/20 14:00:45;;;;;;;8.10;7.30;;;;;;;;;;4994969;28;20229;-73
2023/04/20 14:03:51;;;;;;;8.10;7.30;;;;;;;;;;4996720;28;20194;-74
2023/04/20 14:06:55;;;;;;;11.23;7.13;;;;;;;;;;4997798;28;20637;-74
2023/04/20 14:09:59;;;;;;;8.70;7.80;;;;;;;;;;4996591;28;20182;-74
2023/04/20 14:13:03;;;;;;;7.47;6.77;;;;;;;;;;4996305;28;20205;-74
2023/04/20 14:16:13;;;;;;;8.40;7.07;;;;;;;;;;4985708;28;20182;-74
2023/04/20 14:19:17;;;;;;;8.67;6.83;;;;;;;;;;4997362;28;20186;-74
2023/04/20 14:22:21;;;;;;;6.90;6.17;;;;;;;;;;4996517;28;20229;-74
2023/04/20 14:25:25;;;;;;;6.90;5.23;;;;;;;;;;4997397;28;20190;-74
2023/04/20 14:28:30;;;;;;;7.67;5.97;;;;;;;;;;4997364;28;20185;-74
2023/04/20 14:31:34;;;;;;;8.63;6.27;;;;;;;;;;4996972;28;20210;-74
2023/04/20 14:34:39;;;;;;;6.60;5.60;;;;;;;;;;4996168;28;20198;-74
2023/04/20 14:37:43;;;;;;;8.00;6.40;;;;;;;;;;4996018;28;20198;-73
2023/04/20 14:40:47;;;;;;;5.73;5.13;;;;;;;;;;4996667;28;20226;-74
2023/04/20 14:43:51;;;;;;;5.77;4.97;;;;;;;;;;4996710;28;20202;-74
2023/04/20 14:46:58;;;;;;;8.03;5.13;;;;;;;;;;4996277;28;20174;-74
2023/04/20 14:50:03;;;;;;;6.07;5.47;;;;;;;;;;4996636;28;20182;-74
2023/04/20 14:53:08;;;;;;;6.47;4.60;;;;;;;;;;4996008;28;20178;-74
2023/04/20 14:56:12;;;;;;;11.73;6.80;;;;;;;;;;4996841;28;20178;-74
2023/04/20 14:59:16;;;;;;;6.77;4.97;;;;;;;;;;4995926;28;20186;-74
2023/04/20 15:02:20;;;;;;;6.03;4.50;;;;;;;;;;4996385;28;20222;-73
2023/04/20 15:05:25;;;;;;;5.83;4.83;;;;;;;;;;4995632;28;20190;-74
2023/04/20 15:08:29;;;;;;;4.97;4.47;;;;;;;;;;4996422;28;20186;-74
2023/04/20 15:11:34;;;;;;;5.90;4.70;;;;;;;;;;4983703;28;20217;-74
2023/04/20 15:14:38;;;;;;;5.77;4.77;;;;;;;;;;4996610;28;20186;-73
2023/04/20 15:17:44;;;;;;;12.60;4.63;;;;;;;;;;4996353;28;20178;-74
2023/04/20 15:20:51;;;;;;;6.23;4.70;;;;;;;;;;4995232;28;20668;-74
2023/04/20 15:23:55;;;;;;;7.47;5.00;;;;;;;;;;4995888;28;20190;-74
2023/04/20 15:27:00;;;;;;;7.03;5.30;;;;;;;;;;4995363;28;20205;-74
2023/04/20 15:30:05;;;;;;;9.90;4.87;;;;;;;;;;4994983;28;20178;-74
2023/04/20 15:33:10;;;;;;;5.67;4.83;;;;;;;;;;4995865;28;20170;-73
2023/04/20 15:36:17;;;;;;;8.17;4.73;;;;;;;;;;4995728;28;20502;-73
2023/04/20 15:39:21;;;;;;;5.60;4.80;;;;;;;;;;4995715;28;20186;-74
2023/04/20 15:42:26;;;;;;;5.20;4.37;;;;;;;;;;4995871;28;20672;-73
2023/04/20 15:45:30;;;;;;;5.23;4.50;;;;;;;;;;4994618;28;20210;-74
2023/04/20 15:48:35;;;;;;;6.50;4.93;;;;;;;;;;4995456;28;20202;-73
2023/04/20 15:51:38;;;;;;;34.57;23.63;;;;;;;;;;4995466;28;20218;-73
2023/04/20 15:54:45;;;;;;;6.73;5.53;;;;;;;;;;4995323;28;20197;-73
2023/04/20 15:57:49;;;;;;;5.77;4.67;;;;;;;;;;4995547;28;20202;-73
2023/04/20 16:00:53;;;;;;;12.33;7.63;;;;;;;;;;4995339;28;20217;-73
2023/04/20 16:03:58;;;;;;;7.73;4.77;;;;;;;;;;4995149;28;20182;-75
2023/04/20 16:07:20;;;;;;;5.07;4.23;;;;;;;;;;4995327;28;20186;-72
2023/04/20 16:10:26;;;;;;;12.10;9.10;;;;;;;;;;4995294;28;20178;-72
2023/04/20 16:13:30;;;;;;;12.80;4.13;;;;;;;;;;4994822;28;20193;-72
2023/04/20 16:16:34;;;;;;;3.87;3.43;;;;;;;;;;4995430;28;20526;-73
2023/04/20 16:19:38;;;;;;;11.43;9.37;;;;;;;;;;4995108;28;20186;-72
2023/04/20 16:22:42;;;;;;;6.17;4.23;;;;;;;;;;4994341;28;20210;-72
2023/04/20 16:25:47;;;;;;;6.00;4.80;;;;;;;;;;4995142;28;20190;-72
2023/04/20 16:28:52;;;;;;;8.13;4.57;;;;;;;;;;4994195;28;20633;-72
2023/04/20 16:31:56;;;;;;;4.10;3.70;;;;;;;;;;4994547;28;20688;-72
2023/04/20 16:35:00;;;;;;;4.00;3.60;;;;;;;;;;4994356;28;20190;-72
2023/04/20 16:38:04;;;;;;;7.33;4.57;;;;;;;;;;4993619;28;20193;-72
2023/04/20 16:41:08;;;;;;;4.73;4.27;;;;;;;;;;4993802;28;20214;-72
2023/04/20 16:44:13;;;;;;;4.67;4.10;;;;;;;;;;4994877;28;20522;-72
2023/04/20 16:47:17;;;;;;;4.43;4.03;;;;;;;;;;4993596;28;20202;-72
2023/04/20 16:50:21;;;;;;;8.40;3.90;;;;;;;;;;4994440;28;20182;-72
2023/04/20 16:53:25;;;;;;;5.63;4.30;;;;;;;;;;4994372;28;20179;-73
2023/04/20 16:56:29;;;;;;;6.03;4.43;;;;;;;;;;4994556;28;20637;-73
2023/04/20 16:59:33;;;;;;;4.73;4.03;;;;;;;;;;4994426;28;20177;-72
2023/04/20 17:02:37;;;;;;;6.03;4.43;;;;;;;;;;4993172;28;20222;-72
2023/04/20 17:05:41;;;;;;;6.20;3.80;;;;;;;;;;4994647;28;20182;-73
2023/04/20 17:08:46;;;;;;;4.20;3.80;;;;;;;;;;4994145;28;20182;-73
2023/04/20 17:11:50;;;;;;;4.93;4.03;;;;;;;;;;4994037;28;20221;-73
2023/04/20 17:14:54;;;;;;;4.43;3.70;;;;;;;;;;4982228;28;20186;-73
2023/04/20 17:17:58;;;;;;;7.67;4.50;;;;;;;;;;4993977;28;20645;-72
2023/04/20 17:21:02;;;;;;;5.47;4.47;;;;;;;;;;4993025;28;20213;-72
2023/04/20 17:24:06;;;;;;;5.40;4.30;;;;;;;;;;4994008;28;20193;-71
2023/04/20 17:27:11;;;;;;;6.83;5.17;;;;;;;;;;4994506;28;20194;-72
2023/04/20 17:30:15;;;;;;;6.43;5.77;;;;;;;;;;4982218;28;20640;-72
2023/04/20 17:33:19;;;;;;;7.90;6.20;;;;;;;;;;4993630;28;20174;-72
2023/04/20 17:36:23;;;;;;;5.77;4.97;;;;;;;;;;4994233;28;20178;-72
2023/04/20 17:39:27;;;;;;;8.03;5.87;;;;;;;;;;4981724;28;20178;-72
2023/04/20 17:42:31;;;;;;;7.63;5.90;;;;;;;;;;4993124;28;20233;-72
2023/04/20 17:45:35;;;;;;;5.77;5.10;;;;;;;;;;4993266;28;20507;-72
2023/04/20 17:48:39;;;;;;;6.73;6.03;;;;;;;;;;4993552;28;20182;-72
2023/04/20 17:51:44;;;;;;;11.33;7.70;;;;;;;;;;4993422;28;20218;-72
2023/04/20 17:54:48;;;;;;;12.60;8.90;;;;;;;;;;4993743;28;20194;-72
2023/04/20 17:57:52;;;;;;;8.90;7.33;;;;;;;;;;4993697;28;20182;-72
2023/04/20 18:00:56;;;;;;;10.63;7.17;;;;;;;;;;4993347;28;20221;-72
2023/04/20 18:04:01;;;;;;;10.93;7.50;;;;;;;;;;4982034;28;20649;-71
2023/04/20 18:07:05;;;;;;;10.60;7.67;;;;;;;;;;4993436;28;20182;-71
2023/04/20 18:10:09;;;;;;;10.97;8.17;;;;;;;;;;4993306;28;20669;-71
2023/04/20 18:13:14;;;;;;;12.83;8.87;;;;;;;;;;4992441;28;20198;-71
2023/04/20 18:16:18;;;;;;;11.37;8.70;;;;;;;;;;4993550;28;20178;-71
2023/04/20 18:19:22;;;;;;;12.90;8.20;;;;;;;;;;4993325;28;20182;-72
2023/04/20 18:22:26;;;;;;;10.23;8.53;;;;;;;;;;4993313;28;20217;-72